Meteo Giornale » Osservazioni meteo Bielorussia » Minsk
ore: 00:30 - Osservazioni Meteo Minsk
Lat. 53° 56' N Lon. 27° 38' E Alt. 234 metri s.l.m.
20 °C
Pioggia
Temp. 24 Ore
11 °C
28 °C
Sud
10.8 Km/h
Dew point 16 °C
Umidità 77 %
Visibilità 9 Km
Il sole sorge alle ore 06:17
Il sole tramonta alle ore 20:01
| Data e Ora | Cielo e Fenomeni | T °C | DP °C | Um. % | Pres. hPa | Vis. km | Vento km/h | |
|---|---|---|---|---|---|---|---|---|
| Oggi h: 00:30 | Pioggia | 20 | 16 | 77 | 1013 | 9 | S 10.8 | |
| Oggi h: 00:00 | Sereno | 19 | 16 | 82 | 1013 | 10 | N 7.2 | |
| Ieri h: 23:30 | Sereno | 19 | 15 | 77 | 1013 | 10 | N 7.2 | |
| Ieri h: 23:00 | Sereno | 19 | 15 | 77 | 1013 | 10 | N 7.2 | |
| Ieri h: 22:30 | Sereno | 19 | 15 | 77 | 1013 | 10 | N 7.2 | |
| Ieri h: 22:00 | Sereno | 18 | 15 | 82 | 1013 | 10 | N 3.6 | |
| Ieri h: 21:30 | Sereno | 17 | 15 | 88 | 1013 | 10 | N 7.2 | |
| Ieri h: 21:00 | Sereno | 16 | 15 | 93 | 1013 | 10 | N 3.6 | |
| Ieri h: 20:30 | Sereno | 17 | 15 | 88 | 1013 | 10 | N 0 | |
| Ieri h: 20:00 | Sereno | 19 | 16 | 82 | 1013 | 10 | N 3.6 | |
| Ieri h: 19:30 | Sereno | 22 | 14 | 60 | 1013 | 10 | N 3.6 | |
| Ieri h: 19:00 | Sereno | 25 | 13 | 47 | 1013 | 10 | N 7.2 | |
| Ieri h: 18:30 | Sereno | 26 | 13 | 44 | 1014 | 10 | SO 10.8 | |
| Ieri h: 18:00 | Sereno | 27 | 13 | 42 | 1014 | 10 | SO 10.8 | |
| Ieri h: 17:30 | Sereno | 27 | 12 | 39 | 1014 | 10 | S 10.8 | |
| Ieri h: 17:17 | Sereno | 26 | 13 | 44 | 1014 | 10 | S/SO 14.4 | |
| Ieri h: 17:00 | Sereno | 26 | 12 | 41 | 1014 | 10 | S 14.4 | |
| Ieri h: 16:46 | Sereno | 27 | 12 | 39 | 1014 | 10 | S/SO 14.4 | |
| Ieri h: 16:30 | Sereno | 28 | 12 | 37 | 1014 | 10 | S/SO 18 | |
| Ieri h: 16:00 | Sereno | 27 | 12 | 39 | 1014 | 10 | S/SO 18 | |
| Ieri h: 15:30 | Sereno | 27 | 13 | 42 | 1014 | 10 | S/SO 10.8 | |
| Ieri h: 15:00 | Sereno | 27 | 13 | 42 | 1015 | 10 | SO 10.8 | |
| Ieri h: 14:30 | Sereno | 26 | 13 | 44 | 1015 | 10 | S/SO 18 | |
| Ieri h: 14:00 | Sereno | 27 | 13 | 42 | 1015 | 10 | S/SO 10.8 | |
| Ieri h: 13:30 | Sereno | 26 | 13 | 44 | 1015 | 10 | SO 14.4 | |
| Ieri h: 13:00 | Sereno | 26 | 13 | 44 | 1015 | 10 | SO 10.8 | |
| Ieri h: 12:30 | Sereno | 25 | 13 | 47 | 1015 | 10 | S/SO 10.8 | |
| Ieri h: 12:00 | Sereno | 25 | 14 | 50 | 1016 | 10 | S/SO 10.8 | |
| Ieri h: 11:30 | Sereno | 24 | 14 | 53 | 1016 | 10 | S/SO 14.4 | |
| Ieri h: 11:00 | Sereno | 23 | 15 | 60 | 1016 | 10 | S/SO 14.4 | |
| Ieri h: 10:30 | Sereno | 22 | 15 | 64 | 1016 | 10 | S/SO 14.4 | |
| Ieri h: 10:00 | Sereno | 21 | 15 | 68 | 1016 | 10 | S/SO 10.8 | |
| Ieri h: 09:30 | Sereno | 19 | 15 | 77 | 1016 | 10 | S/SO 10.8 | |
| Ieri h: 09:00 | Sereno | 18 | 15 | 82 | 1016 | 10 | S/SO 10.8 | |
| Ieri h: 08:30 | Sereno | 16 | 14 | 87 | 1016 | 10 | S 10.8 | |
| Ieri h: 08:00 | Sereno | 15 | 14 | 93 | 1016 | 10 | N 7.2 | |
| Ieri h: 07:30 | Sereno | 14 | 13 | 93 | 1016 | 10 | N 7.2 | |
| Ieri h: 07:00 | Sereno | 12 | 12 | 100 | 1016 | 10 | N 7.2 | |
| Ieri h: 06:30 | Nebbia Foschia | 11 | 11 | 100 | 1016 | 4 | N 7.2 | |
| Ieri h: 06:25 | Nebbia a tratti | 12 | 12 | 100 | 1016 | 0.45 | N 7.2 | |
| Ieri h: 06:00 | Sereno | 11 | 11 | 100 | 1016 | 9 | N 7.2 | |
| Ieri h: 05:30 | Sereno | 12 | 11 | 93 | 1016 | 10 | N 3.6 | |
| Ieri h: 05:00 | Sereno | 13 | 12 | 93 | 1016 | 9 | N 3.6 | |
| Ieri h: 04:30 | Sereno | 13 | 13 | 100 | 1017 | 10 | N 7.2 | |
| Ieri h: 04:00 | Sereno | 11 | 11 | 100 | 1017 | 9 | SE 10.8 | |
| Ieri h: 03:30 | Sereno | 12 | 12 | 100 | 1017 | 9 | N 3.6 | |
| Ieri h: 03:00 | Foschia | 12 | 12 | 100 | 1017 | 2 | N 3.6 | |
| Ieri h: 02:30 | Foschia | 12 | 12 | 100 | 1017 | 3 | N 3.6 | |
| Ieri h: 02:00 | Sereno | 13 | 13 | 100 | 1017 | 10 | N 7.2 | |
| Ieri h: 01:30 | Sereno | 13 | 13 | 100 | 1017 | 10 | N 7.2 | |
| Ieri h: 01:00 | Sereno | 14 | 13 | 93 | 1017 | 10 | N 7.2 | |



